X  Cerrar Datos meteorológicos de aviación METAR     EDDG Münster Osnabrück Airport
Temperatura
13°C Temperatura
10°C Punto de rocío
82% Humedad



Viento
10 KM/H
6 MPH
3 M/S
5 NUDO



220°
SO
Condiciones actuales

Area Lluvia Area Lluvia
Presión 1010.92 (hPa) - 29.85 (inHg)
Visibilidad 6.2 (milla) - 10 (km)
Aeropuerto
Código de aeropuerto EDDG

localidad: Münster Osnabrück Airport
Distancia: 45 (km)

Metar:
EDDG 011950Z AUTO 22005KT 9999 VCSH FEW044 FEW///CB 13/10 Q1011 TEMPO 25010KT SHRA BKN015TCU

Hora: 01-10-2022 21:50 CEST